Time;durP1;ratioP1;P1;durP2;ratioP2;P2;SDS_P1;SDS_P2;PMS_P1;PMS_P2;Temp;Humidity;BMP_temperature;BMP_pressure;BME280_temperature;BME280_humidity;BME280_pressure;Samples;Min_cycle;Max_cycle;Signal;HPM_P1;HPM_P2
2023/10/16 00:01:31;;;;;;;5.20;2.30;;;;;;;5.21;83.72;96742.67;109097;1267;22578;-71
2023/10/16 00:04:06;;;;;;;4.10;2.00;;;;;;;5.21;83.92;96745.30;109099;1273;22484;-71
2023/10/16 00:06:37;;;;;;;3.70;2.00;;;;;;;5.22;83.83;96748.57;109131;1269;22708;-71
2023/10/16 00:09:14;;;;;;;5.10;2.30;;;;;;;5.24;83.64;96751.50;109061;1269;22532;-71
2023/10/16 00:11:46;;;;;;;5.30;2.30;;;;;;;5.25;83.52;96761.13;109066;1266;22559;-71
2023/10/16 00:14:23;;;;;;;5.90;2.60;;;;;;;5.26;83.66;96760.29;109036;1273;25422;-71
2023/10/16 00:16:54;;;;;;;6.30;2.50;;;;;;;5.26;83.39;96765.25;109045;1269;22624;-71
2023/10/16 00:19:25;;;;;;;4.60;2.50;;;;;;;5.27;83.54;96762.52;109072;1272;22664;-71
2023/10/16 00:21:57;;;;;;;4.30;2.00;;;;;;;5.26;83.30;96761.61;109081;1273;25428;-71
2023/10/16 00:24:29;;;;;;;2.90;1.60;;;;;;;5.26;83.54;96760.98;109090;1266;24212;-71
2023/10/16 00:27:02;;;;;;;4.20;2.30;;;;;;;5.24;83.31;96758.23;109066;1265;22548;-71
2023/10/16 00:29:39;;;;;;;3.20;1.40;;;;;;;5.23;83.22;96757.89;109094;1272;23831;-71
2023/10/16 00:32:11;;;;;;;3.50;1.50;;;;;;;5.21;83.26;96766.11;109062;1266;22810;-71
2023/10/16 00:34:42;;;;;;;4.50;2.20;;;;;;;5.21;83.12;96760.22;109064;1273;22484;-71
2023/10/16 00:37:13;;;;;;;8.90;2.60;;;;;;;5.20;83.13;96760.75;109100;1266;22600;-71
2023/10/16 00:39:44;;;;;;;3.60;1.50;;;;;;;5.20;83.01;96764.91;109031;1273;22681;-71
2023/10/16 00:42:15;;;;;;;2.80;1.80;;;;;;;5.18;83.03;96763.01;109093;1273;22529;-71
2023/10/16 00:44:47;;;;;;;5.10;2.40;;;;;;;5.18;82.99;96766.68;109102;1273;22520;-71
2023/10/16 00:47:18;;;;;;;4.00;1.20;;;;;;;5.20;82.87;96767.50;109058;1273;22528;-71
2023/10/16 00:49:50;;;;;;;3.00;1.60;;;;;;;5.20;83.15;96765.08;109088;1269;22922;-71
2023/10/16 00:52:21;;;;;;;3.30;1.40;;;;;;;5.19;83.21;96764.17;109054;1265;24335;-71
2023/10/16 00:54:55;;;;;;;4.50;1.90;;;;;;;5.18;83.11;96770.62;109123;1272;22513;-71
2023/10/16 00:57:27;;;;;;;4.00;1.60;;;;;;;5.18;82.82;96766.89;109082;1272;22469;-71
2023/10/16 00:59:59;;;;;;;2.70;1.80;;;;;;;5.18;82.85;96773.98;109031;1270;22511;-71
2023/10/16 01:02:32;;;;;;;3.70;1.50;;;;;;;5.16;83.13;96773.91;109057;1273;22648;-72
2023/10/16 01:05:04;;;;;;;2.10;1.60;;;;;;;5.16;83.18;96771.33;109084;1272;22564;-71
2023/10/16 01:07:38;;;;;;;4.10;1.30;;;;;;;5.15;83.15;96770.99;109070;1266;22522;-72
2023/10/16 01:10:11;;;;;;;6.20;2.00;;;;;;;5.15;82.89;96780.88;109100;1273;22532;-71
2023/10/16 01:12:54;;;;;;;3.40;2.00;;;;;;;5.15;82.84;96776.09;109116;1270;22539;-72
2023/10/16 01:15:25;;;;;;;2.50;1.40;;;;;;;5.15;82.80;96780.61;109039;1266;22828;-71
2023/10/16 01:17:58;;;;;;;3.70;1.30;;;;;;;5.15;82.82;96779.88;109040;1273;22581;-72
2023/10/16 01:20:32;;;;;;;2.90;1.50;;;;;;;5.15;82.78;96782.66;109030;1273;23808;-71
2023/10/16 01:23:08;;;;;;;2.30;1.10;;;;;;;5.14;82.43;96769.46;109058;1266;22538;-71
2023/10/16 01:25:39;;;;;;;0.60;0.60;;;;;;;5.13;82.14;96778.59;109059;1250;25414;-71
2023/10/16 01:28:10;;;;;;;2.90;1.40;;;;;;;5.13;82.13;96777.95;109019;1266;22518;-72
2023/10/16 01:30:41;;;;;;;2.60;1.40;;;;;;;5.12;81.73;96775.22;109094;1273;22615;-71
2023/10/16 01:33:16;;;;;;;5.70;1.60;;;;;;;5.12;81.59;96783.27;109090;1271;22569;-71
2023/10/16 01:35:47;;;;;;;3.80;1.40;;;;;;;5.12;81.52;96786.26;109096;1272;22973;-71
2023/10/16 01:38:19;;;;;;;4.70;1.10;;;;;;;5.12;81.34;96784.84;109040;1270;25252;-71
2023/10/16 01:41:04;;;;;;;2.70;1.50;;;;;;;5.14;81.17;96785.17;109069;1266;22609;-71
2023/10/16 01:43:38;;;;;;;1.90;1.50;;;;;;;5.13;81.25;96783.90;109115;1269;23207;-72
2023/10/16 01:46:12;;;;;;;3.50;1.30;;;;;;;5.11;81.25;96792.65;109113;1270;22591;-71
2023/10/16 01:48:45;;;;;;;3.90;1.70;;;;;;;5.10;81.22;96791.21;109069;1269;22547;-71
2023/10/16 01:51:19;;;;;;;2.70;1.00;;;;;;;5.08;81.67;96796.51;109088;1270;22473;-71
2023/10/16 01:53:51;;;;;;;2.70;1.10;;;;;;;5.07;81.60;96794.95;109050;1266;22656;-72
2023/10/16 01:56:22;;;;;;;2.10;1.00;;;;;;;5.04;81.44;96796.05;109076;1269;23861;-71
2023/10/16 01:58:54;;;;;;;2.70;1.10;;;;;;;5.03;81.66;96788.41;109046;1265;22626;-71
2023/10/16 02:01:25;;;;;;;5.40;1.50;;;;;;;5.03;81.51;96799.55;109084;1266;24199;-71
2023/10/16 02:03:56;;;;;;;2.10;1.00;;;;;;;5.04;81.45;96798.25;109064;1272;25414;-71
2023/10/16 02:06:27;;;;;;;4.70;1.60;;;;;;;5.03;81.38;96801.65;109045;1266;23979;-72
2023/10/16 02:08:59;;;;;;;4.10;1.80;;;;;;;5.02;81.51;96800.91;109050;1273;22582;-72
2023/10/16 02:11:30;;;;;;;1.20;0.70;;;;;;;5.02;81.23;96798.70;109088;1272;22616;-71
2023/10/16 02:14:02;;;;;;;2.30;1.10;;;;;;;5.00;80.87;96806.45;109054;1266;22473;-71
2023/10/16 02:16:37;;;;;;;4.00;1.20;;;;;;;4.98;81.13;96797.27;109054;1266;22582;-71
2023/10/16 02:19:11;;;;;;;4.20;0.70;;;;;;;4.96;80.89;96804.08;109099;1272;22570;-71
2023/10/16 02:21:43;;;;;;;1.30;0.90;;;;;;;4.93;81.22;96812.85;109038;1273;23697;-71
2023/10/16 02:24:16;;;;;;;2.10;0.80;;;;;;;4.93;81.05;96808.22;109083;1266;23348;-71
2023/10/16 02:27:02;;;;;;;1.60;1.00;;;;;;;4.92;81.28;96805.27;109078;1266;22523;-71
2023/10/16 02:29:37;;;;;;;1.90;1.20;;;;;;;4.93;80.93;96810.95;109042;1273;22698;-71
2023/10/16 02:32:10;;;;;;;3.40;0.90;;;;;;;4.93;81.05;96813.11;109054;1273;24216;-71
2023/10/16 02:34:41;;;;;;;3.60;0.80;;;;;;;4.92;80.99;96813.67;109108;1272;22521;-72
2023/10/16 02:37:14;;;;;;;2.60;1.40;;;;;;;4.92;80.84;96811.45;109079;1272;22546;-71
2023/10/16 02:39:50;;;;;;;3.60;1.20;;;;;;;4.91;80.68;96812.68;109082;1272;24343;-71
2023/10/16 02:42:25;;;;;;;1.20;0.60;;;;;;;4.91;80.89;96810.74;109028;1273;22511;-71
2023/10/16 02:44:58;;;;;;;1.70;0.80;;;;;;;4.92;80.64;96806.57;109097;1273;22622;-71
2023/10/16 02:47:30;;;;;;;3.00;0.70;;;;;;;4.93;80.24;96805.23;109105;1272;22528;-71
2023/10/16 02:50:08;;;;;;;4.80;0.90;;;;;;;4.93;79.95;96804.74;109123;1265;22538;-71
2023/10/16 02:52:39;;;;;;;3.50;1.10;;;;;;;4.93;79.74;96803.08;109031;1273;22713;-72
2023/10/16 02:55:14;;;;;;;4.20;1.10;;;;;;;4.94;79.54;96809.40;109044;1266;22596;-71
2023/10/16 02:57:45;;;;;;;2.80;1.00;;;;;;;4.95;79.31;96807.73;109144;1266;22833;-71
2023/10/16 03:00:25;;;;;;;4.30;1.20;;;;;;;4.95;79.13;96809.42;109089;1270;22683;-71
2023/10/16 03:02:57;;;;;;;2.20;0.90;;;;;;;4.95;79.35;96806.95;109058;1266;22528;-72
2023/10/16 03:05:37;;;;;;;4.10;1.00;;;;;;;4.95;79.39;96815.40;109079;1266;22579;-71
2023/10/16 03:08:12;;;;;;;;;;;;;;;4.97;79.50;96810.08;109031;1265;22749;-71
2023/10/16 03:10:45;;;;;;;2.30;0.80;;;;;;;4.98;79.63;96811.94;109072;1273;24228;-71
2023/10/16 03:13:18;;;;;;;6.60;1.10;;;;;;;4.98;79.57;96814.92;109091;1266;23762;-72
2023/10/16 03:15:57;;;;;;;4.10;1.90;;;;;;;4.98;79.65;96811.20;109112;1272;22632;-72
2023/10/16 03:18:29;;;;;;;2.50;1.10;;;;;;;4.99;79.79;96812.00;109017;1273;23129;-71
2023/10/16 03:21:27;;;;;;;3.70;1.10;;;;;;;4.98;79.79;96810.73;109109;1269;22494;-72
2023/10/16 03:24:00;;;;;;;3.20;1.10;;;;;;;4.97;79.68;96816.48;109086;1269;22633;-71
2023/10/16 03:26:32;;;;;;;4.50;1.10;;;;;;;4.97;79.80;96820.69;109065;1273;22508;-71
2023/10/16 03:29:04;;;;;;;3.00;1.00;;;;;;;4.98;79.78;96822.48;109025;1273;22827;-72
2023/10/16 03:31:39;;;;;;;2.70;1.30;;;;;;;4.98;79.63;96813.46;109117;1272;22558;-71
2023/10/16 03:34:12;;;;;;;2.00;0.90;;;;;;;5.01;79.32;96816.44;109124;1266;22834;-71
2023/10/16 03:36:43;;;;;;;3.70;1.00;;;;;;;5.01;79.29;96816.87;109026;1273;23881;-71
2023/10/16 03:39:18;;;;;;;5.10;1.20;;;;;;;5.02;79.32;96813.61;109064;1270;22663;-71
2023/10/16 03:41:51;;;;;;;4.20;1.10;;;;;;;5.01;79.34;96816.09;109052;1272;22517;-71
2023/10/16 03:44:26;;;;;;;4.90;0.90;;;;;;;5.03;79.29;96819.20;109047;1267;22515;-71
2023/10/16 03:46:58;;;;;;;2.40;0.80;;;;;;;5.03;79.27;96818.20;109082;1272;22515;-71
2023/10/16 03:49:32;;;;;;;3.00;0.90;;;;;;;5.03;79.26;96814.64;109061;1269;22514;-71
2023/10/16 03:52:08;;;;;;;3.60;1.20;;;;;;;5.04;79.05;96815.91;109121;1272;22568;-71
2023/10/16 03:54:42;;;;;;;4.10;1.20;;;;;;;5.05;79.03;96813.94;109072;1269;22596;-71
2023/10/16 03:57:13;;;;;;;3.20;0.90;;;;;;;5.06;78.78;96811.20;109053;1266;22556;-71
2023/10/16 03:59:47;;;;;;;2.60;0.90;;;;;;;5.06;78.84;96815.16;109073;1273;22764;-71
2023/10/16 04:02:22;;;;;;;2.20;0.90;;;;;;;5.05;78.73;96813.09;109054;1273;22595;-72
2023/10/16 04:04:54;;;;;;;3.90;1.10;;;;;;;5.05;78.77;96814.45;109067;1266;22579;-71
2023/10/16 04:07:25;;;;;;;4.50;1.00;;;;;;;5.08;78.82;96811.67;109128;1273;23837;-71
2023/10/16 04:10:21;;;;;;;4.10;1.10;;;;;;;5.08;78.63;96815.79;109050;1272;22591;-71
2023/10/16 04:12:51;;;;;;;3.60;1.10;;;;;;;5.09;78.54;96812.07;109085;1269;22518;-72
2023/10/16 04:15:59;;;;;;;1.50;0.80;;;;;;;5.09;78.43;96811.98;109108;1273;22521;-71
2023/10/16 04:18:30;;;;;;;2.90;0.70;;;;;;;5.11;78.39;96816.05;109038;1273;23975;-71
2023/10/16 04:23:59;;;;;;;6.00;1.00;;;;;;;5.09;78.04;96814.11;108954;1273;22599;-71
2023/10/16 04:26:34;;;;;;;3.60;1.00;;;;;;;5.07;77.89;96805.63;109076;1273;22524;-72
2023/10/16 04:29:34;;;;;;;2.20;0.60;;;;;;;5.08;77.70;96808.89;109040;1272;22578;-72
2023/10/16 04:32:20;;;;;;;3.10;0.80;;;;;;;5.06;77.55;96809.27;109082;1270;22552;-71
2023/10/16 04:34:54;;;;;;;2.60;0.80;;;;;;;5.05;77.50;96807.95;109090;1272;23794;-71
2023/10/16 04:37:36;;;;;;;2.10;0.70;;;;;;;5.03;77.59;96807.96;109088;1269;22626;-71
2023/10/16 04:43:16;;;;;;;3.60;0.70;;;;;;;5.00;77.75;96812.40;109062;1266;25333;-71
2023/10/16 04:46:15;;;;;;;2.70;0.70;;;;;;;5.02;77.62;96814.20;109108;1271;22521;-71
2023/10/16 04:48:49;;;;;;;3.90;1.00;;;;;;;5.02;77.84;96818.61;109084;1269;22518;-72
2023/10/16 04:51:27;;;;;;;3.40;0.70;;;;;;;5.03;77.79;96816.90;109079;1273;22652;-71
2023/10/16 04:54:13;;;;;;;4.80;1.10;;;;;;;5.04;77.70;96821.20;109071;1270;22514;-71
2023/10/16 04:59:58;;;;;;;2.60;1.10;;;;;;;5.05;77.71;96828.90;108954;1273;22636;-71
2023/10/16 05:02:41;;;;;;;2.80;1.10;;;;;;;5.06;77.71;96829.08;109051;1273;22537;-71
2023/10/16 05:13:55;;;;;;;1.10;0.50;;;;;;;5.11;77.58;96845.42;109080;1273;24224;-71
2023/10/16 05:16:35;;;;;;;1.30;0.60;;;;;;;5.11;77.61;96845.10;109144;1249;22790;-71
2023/10/16 05:19:17;;;;;;;4.50;0.90;;;;;;;5.11;77.64;96852.30;109083;1269;22684;-71
2023/10/16 06:15:37;;;;;;;2.20;0.80;;;;;;;5.28;76.70;96868.45;109035;1269;25506;-71
2023/10/16 06:18:10;;;;;;;1.20;0.40;;;;;;;5.28;76.82;96876.70;109088;1272;22578;-71
2023/10/16 06:20:44;;;;;;;4.50;0.70;;;;;;;5.28;76.75;96882.48;109109;1273;22507;-71
2023/10/16 06:23:19;;;;;;;2.40;0.60;;;;;;;5.26;76.63;96879.10;109098;1272;22459;-71
2023/10/16 06:25:50;;;;;;;3.70;0.70;;;;;;;5.24;76.37;96885.12;109095;1269;25397;-71
2023/10/16 06:28:22;;;;;;;1.30;0.70;;;;;;;5.23;76.27;96884.73;109064;1272;27399;-72
2023/10/16 06:30:53;;;;;;;1.00;0.50;;;;;;;5.24;76.36;96881.38;109120;1266;24235;-71
2023/10/16 06:33:28;;;;;;;2.50;0.70;;;;;;;5.26;76.33;96882.25;109111;1266;22540;-71
2023/10/16 06:36:00;;;;;;;1.30;0.60;;;;;;;5.29;76.57;96891.67;109087;1273;23799;-71
2023/10/16 06:38:31;;;;;;;1.30;0.60;;;;;;;5.32;76.59;96895.64;109066;1273;25457;-71
2023/10/16 06:41:05;;;;;;;1.60;0.60;;;;;;;5.34;76.72;96895.79;109053;1273;24146;-71
2023/10/16 06:43:38;;;;;;;2.60;1.10;;;;;;;5.35;76.58;96899.76;109049;1272;24204;-71
2023/10/16 06:46:10;;;;;;;1.70;0.90;;;;;;;5.34;76.81;96897.06;109104;1272;22460;-71
2023/10/16 06:48:41;;;;;;;2.20;0.70;;;;;;;5.38;76.82;96903.48;109077;1266;25562;-71
2023/10/16 06:51:15;;;;;;;2.70;0.50;;;;;;;5.41;76.87;96905.20;109108;1273;22459;-71
2023/10/16 06:53:47;;;;;;;2.20;0.60;;;;;;;5.42;76.89;96913.38;109090;1272;25948;-71
2023/10/16 06:56:30;;;;;;;2.10;0.70;;;;;;;5.41;76.94;96912.63;109125;1271;25589;-71
2023/10/16 06:59:02;;;;;;;1.40;0.70;;;;;;;5.41;76.86;96915.79;109067;1273;22522;-71
2023/10/16 07:01:38;;;;;;;1.90;0.60;;;;;;;5.45;77.07;96918.16;109157;1273;22543;-71
2023/10/16 07:04:11;;;;;;;3.50;0.70;;;;;;;5.47;77.01;96919.77;109104;1272;25425;-71
2023/10/16 07:06:44;;;;;;;1.90;0.70;;;;;;;5.48;77.01;96923.67;109069;1273;23860;-71
2023/10/16 07:09:16;;;;;;;1.90;0.50;;;;;;;5.47;77.30;96927.98;109049;1271;23808;-71
2023/10/16 07:11:47;;;;;;;2.20;0.80;;;;;;;5.42;77.68;96920.05;109096;1273;24176;-71
2023/10/16 07:14:18;;;;;;;2.70;0.80;;;;;;;5.43;77.92;96926.75;109084;1273;22588;-71
2023/10/16 07:16:49;;;;;;;0.90;0.60;;;;;;;5.52;78.19;96930.48;109071;1269;22519;-71
2023/10/16 07:19:20;;;;;;;3.10;0.60;;;;;;;5.54;78.52;96930.79;109075;1273;22570;-71
2023/10/16 07:21:52;;;;;;;2.90;1.00;;;;;;;5.49;79.00;96928.71;109099;1272;22548;-71
2023/10/16 07:24:23;;;;;;;1.90;0.80;;;;;;;5.72;79.57;96930.80;109113;1272;22522;-71
2023/10/16 07:26:54;;;;;;;1.90;0.50;;;;;;;5.90;79.43;96931.63;109072;1273;25529;-71
2023/10/16 07:29:25;;;;;;;3.40;0.70;;;;;;;5.83;79.31;96936.14;109021;1273;23838;-71
2023/10/16 07:31:56;;;;;;;1.60;0.70;;;;;;;5.76;79.71;96942.82;109035;1273;24225;-71
2023/10/16 07:34:31;;;;;;;2.90;0.70;;;;;;;5.88;80.44;96935.76;109088;1273;22519;-71
2023/10/16 07:37:07;;;;;;;1.30;0.80;;;;;;;6.44;80.65;96943.79;109051;1267;25368;-71
2023/10/16 07:39:38;;;;;;;3.30;0.80;;;;;;;6.70;80.01;96946.17;109045;1272;22535;-72
2023/10/16 07:42:10;;;;;;;3.30;0.80;;;;;;;6.58;79.56;96940.70;109057;1273;22530;-71
2023/10/16 07:44:42;;;;;;;3.70;0.90;;;;;;;6.45;79.78;96942.42;109047;1273;24263;-71
2023/10/16 07:47:13;;;;;;;2.80;0.80;;;;;;;6.32;79.52;96939.05;109026;1269;22523;-71
2023/10/16 07:49:46;;;;;;;1.60;0.50;;;;;;;6.07;79.46;96947.58;109057;1273;24019;-72
2023/10/16 07:52:18;;;;;;;2.10;0.60;;;;;;;5.89;79.96;96945.67;109078;1269;23791;-71
2023/10/16 07:54:49;;;;;;;3.60;1.20;;;;;;;5.69;80.35;96950.27;109081;1273;23973;-71
2023/10/16 07:57:24;;;;;;;1.60;0.70;;;;;;;5.64;81.06;96950.05;109067;1266;22651;-71
2023/10/16 07:59:55;;;;;;;3.00;0.60;;;;;;;5.55;81.15;96951.73;109068;1272;22958;-71
2023/10/16 08:02:27;;;;;;;3.90;1.10;;;;;;;5.39;81.66;96955.23;109059;1273;22574;-71
2023/10/16 08:05:03;;;;;;;1.90;1.10;;;;;;;5.27;82.21;96956.14;109078;1267;23218;-71
2023/10/16 08:07:47;;;;;;;2.10;0.80;;;;;;;5.24;82.23;96954.30;109079;1269;22480;-71
2023/10/16 08:10:42;;;;;;;3.80;1.20;;;;;;;5.25;82.62;96960.26;109094;1273;22530;-71
2023/10/16 08:13:14;;;;;;;2.00;1.30;;;;;;;5.24;82.63;96957.81;109089;1273;25548;-72
2023/10/16 08:15:49;;;;;;;2.80;1.50;;;;;;;5.18;82.71;96966.99;109077;1263;22527;-71
2023/10/16 08:18:25;;;;;;;1.50;0.90;;;;;;;5.17;82.76;96972.28;108996;1273;24664;-71
2023/10/16 08:21:06;;;;;;;1.80;0.90;;;;;;;5.16;82.95;96973.48;109079;1270;22522;-72
2023/10/16 08:23:38;;;;;;;3.00;1.30;;;;;;;5.15;83.24;96973.94;109049;1272;22539;-71
2023/10/16 08:26:28;;;;;;;2.50;1.40;;;;;;;5.13;83.29;96970.23;108720;1273;514868;-71
2023/10/16 08:29:11;;;;;;;6.30;1.50;;;;;;;5.13;83.56;96967.85;109081;1273;22529;-71
2023/10/16 08:31:45;;;;;;;4.50;1.60;;;;;;;5.12;83.82;96973.82;109138;1266;22620;-71
2023/10/16 08:34:19;;;;;;;0.90;0.80;;;;;;;5.13;83.78;96972.33;109047;1273;25437;-71
2023/10/16 08:36:51;;;;;;;5.50;1.90;;;;;;;5.10;83.83;96975.42;109061;1272;22522;-72
2023/10/16 08:39:22;;;;;;;2.90;1.70;;;;;;;5.13;83.90;96975.80;109028;1273;25532;-72
2023/10/16 08:42:01;;;;;;;3.00;1.20;;;;;;;5.19;83.80;96976.73;109114;1272;23025;-72
2023/10/16 08:44:35;;;;;;;2.90;1.50;;;;;;;5.20;83.98;96981.55;109105;1267;22521;-71
2023/10/16 08:47:16;;;;;;;3.30;1.60;;;;;;;5.25;83.81;96981.70;109086;1265;22679;-71
2023/10/16 08:49:53;;;;;;;2.80;1.20;;;;;;;5.30;83.84;96984.77;109073;1273;25401;-72
2023/10/16 08:52:33;;;;;;;2.70;1.30;;;;;;;5.34;83.76;96987.16;109066;1273;22524;-72
2023/10/16 08:55:15;;;;;;;3.20;1.40;;;;;;;5.46;84.03;96986.43;109045;1273;22555;-72
2023/10/16 08:57:48;;;;;;;5.10;1.40;;;;;;;5.58;83.68;96996.38;109110;1273;22640;-71
2023/10/16 09:00:30;;;;;;;4.30;1.30;;;;;;;5.57;83.56;96996.94;109040;1273;25407;-73
2023/10/16 09:03:04;;;;;;;3.30;1.80;;;;;;;5.66;83.87;96998.77;109067;1273;22538;-73
2023/10/16 09:05:36;;;;;;;4.60;1.70;;;;;;;5.92;84.15;96995.23;109038;1273;22623;-72
2023/10/16 09:08:14;;;;;;;4.00;1.60;;;;;;;6.08;84.16;96997.81;109044;1266;22532;-73
2023/10/16 09:10:45;;;;;;;2.20;0.80;;;;;;;6.13;83.83;96998.42;109058;1273;25012;-73
2023/10/16 09:13:19;;;;;;;2.30;1.20;;;;;;;5.99;83.31;96996.45;109093;1273;22517;-73
2023/10/16 09:15:51;;;;;;;3.90;1.20;;;;;;;5.89;83.32;96994.23;109079;1270;23880;-73
2023/10/16 09:18:23;;;;;;;4.70;0.90;;;;;;;5.90;83.73;96998.09;109062;1273;22531;-73
2023/10/16 09:21:00;;;;;;;2.70;1.30;;;;;;;6.17;84.56;96998.85;109097;1272;23009;-73
2023/10/16 09:23:37;;;;;;;3.00;1.40;;;;;;;6.56;85.05;96997.45;109104;1266;22550;-73
2023/10/16 09:26:10;;;;;;;3.90;1.20;;;;;;;6.90;84.25;96994.33;109137;1273;23767;-73
2023/10/16 09:28:42;;;;;;;1.80;0.90;;;;;;;6.89;82.92;96996.84;109064;1273;22568;-73
2023/10/16 09:31:18;;;;;;;2.50;1.00;;;;;;;6.90;82.28;96996.16;109097;1269;22528;-73
2023/10/16 09:33:51;;;;;;;3.20;1.40;;;;;;;6.99;81.48;96995.77;109071;1270;22527;-73
2023/10/16 09:36:29;;;;;;;3.60;1.00;;;;;;;6.88;80.48;96997.98;109087;1272;22564;-73
2023/10/16 09:39:16;;;;;;;2.10;0.80;;;;;;;6.85;80.50;96995.26;109069;1273;23640;-73
2023/10/16 09:41:49;;;;;;;2.60;0.90;;;;;;;6.86;79.94;96991.79;109058;1273;22576;-73
2023/10/16 09:44:23;;;;;;;3.50;1.00;;;;;;;6.74;78.95;96997.34;109103;1270;22518;-73
2023/10/16 09:46:55;;;;;;;3.70;0.80;;;;;;;6.63;78.35;96996.24;109113;1265;22522;-73
2023/10/16 09:49:33;;;;;;;0.80;0.50;;;;;;;6.57;78.58;96997.11;109062;1261;22497;-73
2023/10/16 09:52:05;;;;;;;2.90;0.80;;;;;;;6.50;78.79;97008.13;109065;1267;25415;-73
2023/10/16 09:54:36;;;;;;;3.50;1.10;;;;;;;6.36;79.44;96998.09;109035;1273;23726;-73
2023/10/16 09:57:14;;;;;;;3.10;1.10;;;;;;;6.30;80.00;96999.20;109071;1272;24260;-73
2023/10/16 09:59:45;;;;;;;6.20;0.80;;;;;;;6.33;80.44;96997.30;109066;1273;22830;-73
2023/10/16 10:02:19;;;;;;;1.30;1.00;;;;;;;6.25;79.66;97002.45;109087;1269;25266;-73
2023/10/16 10:04:54;;;;;;;2.50;1.00;;;;;;;6.17;80.08;96994.83;109084;1273;22537;-73
2023/10/16 10:07:38;;;;;;;1.70;0.60;;;;;;;6.26;80.77;96996.73;109027;1273;22540;-73
2023/10/16 10:13:08;;;;;;;2.90;0.70;;;;;;;6.24;80.03;96996.54;109061;1273;25507;-73
2023/10/16 10:15:44;;;;;;;2.90;1.10;;;;;;;6.16;79.83;97001.95;109080;1273;22567;-73
2023/10/16 10:21:28;;;;;;;4.50;0.80;;;;;;;6.02;80.46;97002.86;109053;1273;22511;-73
2023/10/16 10:24:08;;;;;;;3.00;0.80;;;;;;;6.03;80.62;97006.14;109060;1270;22533;-73
2023/10/16 10:26:42;;;;;;;1.40;0.90;;;;;;;6.08;80.34;97004.71;109045;1273;22528;-73
2023/10/16 10:29:13;;;;;;;3.50;0.90;;;;;;;6.08;80.24;97005.83;109047;1273;22991;-73
2023/10/16 10:31:46;;;;;;;3.10;0.60;;;;;;;6.12;80.17;97001.61;109133;1272;22522;-73
2023/10/16 10:34:28;;;;;;;2.50;0.50;;;;;;;6.14;79.77;96994.86;109052;1273;22515;-73
2023/10/16 10:37:00;;;;;;;1.70;0.80;;;;;;;6.20;79.33;96995.12;109080;1273;22523;-73
2023/10/16 10:39:43;;;;;;;2.40;0.90;;;;;;;6.23;78.70;96994.69;109069;1273;22538;-73
2023/10/16 10:42:23;;;;;;;2.20;0.70;;;;;;;6.36;78.33;96994.86;109084;1273;23865;-73
2023/10/16 10:45:29;;;;;;;2.60;1.40;;;;;;;6.89;77.87;96989.48;109022;1267;23437;-73
2023/10/16 10:48:09;;;;;;;1.30;0.50;;;;;;;7.24;76.10;96983.81;109026;1267;22525;-73
2023/10/16 10:50:45;;;;;;;0.90;0.50;;;;;;;7.20;74.72;96985.50;109038;1273;22536;-73
2023/10/16 10:53:17;;;;;;;1.80;0.50;;;;;;;7.10;73.94;96985.71;109069;1273;22556;-73
2023/10/16 10:56:07;;;;;;;3.00;0.40;;;;;;;7.02;73.64;96988.94;109030;1267;22793;-73
2023/10/16 10:58:38;;;;;;;1.70;0.70;;;;;;;6.90;73.19;96988.00;109072;1272;33241;-73
2023/10/16 11:01:26;;;;;;;1.00;0.60;;;;;;;6.62;73.81;96998.19;109099;1273;22526;-73
2023/10/16 11:04:01;;;;;;;0.50;0.50;;;;;;;6.16;75.45;97024.21;109062;1273;22522;-72
2023/10/16 11:06:39;;;;;;;1.10;0.40;;;;;;;5.47;77.58;97026.25;109091;1273;22514;-73
2023/10/16 11:09:18;;;;;;;1.80;0.60;;;;;;;4.97;79.26;97019.30;109072;1273;23553;-72
2023/10/16 11:11:51;;;;;;;1.50;0.70;;;;;;;4.80;80.79;97015.92;109061;1267;24590;-73
2023/10/16 11:14:35;;;;;;;1.80;0.80;;;;;;;4.73;82.12;97017.24;109140;1273;22649;-73
2023/10/16 11:17:09;;;;;;;2.30;0.70;;;;;;;4.65;82.27;97005.16;109042;1273;22849;-72
2023/10/16 11:19:50;;;;;;;1.00;0.40;;;;;;;4.74;82.34;97008.95;109056;1273;22612;-72
2023/10/16 11:22:28;;;;;;;4.20;0.70;;;;;;;4.93;82.90;97003.98;109037;1273;22518;-73
2023/10/16 11:24:59;;;;;;;2.10;0.70;;;;;;;5.10;82.85;97011.37;109080;1273;22562;-73
2023/10/16 11:27:30;;;;;;;2.20;0.80;;;;;;;5.24;83.04;97013.28;109027;1269;24257;-73
2023/10/16 11:30:11;;;;;;;3.30;0.70;;;;;;;5.21;82.87;97006.29;109061;1267;22547;-72
2023/10/16 11:32:45;;;;;;;1.20;0.60;;;;;;;5.31;83.67;97001.21;109061;1273;22527;-73
2023/10/16 11:35:18;;;;;;;1.60;0.60;;;;;;;5.53;84.30;97002.54;109077;1273;22519;-73
2023/10/16 11:37:55;;;;;;;4.40;1.00;;;;;;;5.79;84.48;97000.00;109045;1273;22682;-73
2023/10/16 11:40:39;;;;;;;4.90;1.40;;;;;;;5.98;84.63;97003.48;109060;1273;23811;-73
2023/10/16 11:43:12;;;;;;;2.40;0.80;;;;;;;5.89;83.93;97005.81;109064;1273;22532;-73
2023/10/16 11:45:49;;;;;;;4.20;1.10;;;;;;;5.85;83.92;97012.41;109063;1273;22573;-73
2023/10/16 11:48:35;;;;;;;1.60;0.70;;;;;;;6.06;84.05;97008.14;109113;1273;27181;-73
2023/10/16 11:51:15;;;;;;;2.70;0.80;;;;;;;6.41;83.88;96996.73;109078;1267;22514;-73
2023/10/16 11:53:44;;;;;;;;;;;;;;;6.64;82.77;96990.52;109066;1264;22495;-73
2023/10/16 11:56:18;;;;;;;1.10;0.40;;;;;;;6.57;79.88;96978.36;109111;1273;22687;-73
2023/10/16 11:58:53;;;;;;;1.60;0.50;;;;;;;6.39;79.02;96979.48;109027;1271;22610;-74
2023/10/16 12:01:26;;;;;;;2.40;0.90;;;;;;;6.55;79.75;96985.16;109082;1267;22562;-73
2023/10/16 12:03:58;;;;;;;3.30;1.10;;;;;;;6.94;80.53;96978.72;109071;1271;22479;-73
2023/10/16 12:06:32;;;;;;;2.60;0.80;;;;;;;7.05;79.64;96976.48;109119;1272;22492;-73
2023/10/16 12:09:19;;;;;;;2.10;0.70;;;;;;;6.78;78.43;96974.41;109034;1267;24177;-73
2023/10/16 12:11:52;;;;;;;0.70;0.60;;;;;;;6.60;78.79;96980.18;109099;1273;22595;-73
2023/10/16 12:14:24;;;;;;;3.20;1.10;;;;;;;6.59;79.36;96975.38;109080;1273;24401;-73
2023/10/16 12:17:00;;;;;;;1.20;0.40;;;;;;;6.83;80.53;96967.67;109069;1270;22544;-73
2023/10/16 12:19:31;;;;;;;2.30;1.00;;;;;;;7.17;80.70;96963.33;109095;1267;22548;-73
2023/10/16 12:22:08;;;;;;;2.70;1.10;;;;;;;7.47;80.38;96959.46;109101;1273;24158;-73
2023/10/16 12:24:39;;;;;;;1.50;0.80;;;;;;;7.63;79.30;96960.83;109000;1269;22755;-73
2023/10/16 12:27:15;;;;;;;1.80;0.70;;;;;;;7.59;76.66;96964.00;109052;1273;22543;-73
2023/10/16 12:29:47;;;;;;;4.30;1.00;;;;;;;7.55;76.06;96960.80;109051;1266;22550;-73
2023/10/16 12:32:18;;;;;;;3.60;0.90;;;;;;;7.37;75.31;96958.77;109096;1267;22522;-73
2023/10/16 12:34:52;;;;;;;1.80;0.80;;;;;;;7.21;74.53;96962.00;109079;1273;22535;-73
2023/10/16 12:37:25;;;;;;;2.10;0.80;;;;;;;7.19;73.96;96958.81;109070;1267;22525;-73
2023/10/16 12:39:56;;;;;;;1.70;1.00;;;;;;;7.13;74.27;96960.02;109077;1263;22827;-73
2023/10/16 12:42:30;;;;;;;1.80;1.00;;;;;;;7.23;74.66;96962.86;109055;1270;22493;-73
2023/10/16 12:45:05;;;;;;;3.10;1.40;;;;;;;7.27;74.73;96961.90;109046;1273;22608;-73
2023/10/16 12:47:40;;;;;;;3.10;1.40;;;;;;;7.39;75.33;96962.81;109095;1273;25434;-73
2023/10/16 12:50:12;;;;;;;1.00;0.90;;;;;;;7.46;74.89;96964.79;109090;1267;22510;-73
2023/10/16 12:52:45;;;;;;;1.50;0.90;;;;;;;7.33;74.08;96965.55;109116;1263;22539;-72
2023/10/16 12:55:16;;;;;;;3.40;1.10;;;;;;;7.25;74.34;96965.30;109090;1267;22657;-73
2023/10/16 12:57:48;;;;;;;6.10;1.70;;;;;;;7.33;75.05;96966.48;109062;1273;24244;-73
2023/10/16 13:00:21;;;;;;;3.20;1.10;;;;;;;7.54;74.84;96963.05;109095;1266;22533;-72
2023/10/16 13:02:58;;;;;;;3.20;1.20;;;;;;;7.42;74.33;96958.20;109106;1267;22526;-73
2023/10/16 13:05:33;;;;;;;3.20;1.40;;;;;;;7.32;74.15;96945.02;109056;1273;22476;-72
2023/10/16 13:08:07;;;;;;;2.80;1.40;;;;;;;7.19;74.29;96943.00;109045;1273;22519;-72
2023/10/16 13:10:38;;;;;;;3.00;1.30;;;;;;;7.15;74.35;96936.45;109052;1272;24663;-72
2023/10/16 13:13:09;;;;;;;3.40;1.40;;;;;;;7.12;74.49;96939.70;109171;1266;23230;-72
2023/10/16 13:15:44;;;;;;;2.70;1.20;;;;;;;7.17;74.60;96945.04;109098;1273;22523;-72
2023/10/16 13:18:16;;;;;;;2.50;1.10;;;;;;;7.13;74.26;96946.20;109104;1267;24192;-72
2023/10/16 13:20:48;;;;;;;4.20;1.70;;;;;;;7.10;74.30;96949.65;109088;1270;25420;-72
2023/10/16 13:23:20;;;;;;;3.00;1.30;;;;;;;7.14;74.70;96944.46;109033;1273;22562;-73
2023/10/16 13:25:56;;;;;;;4.40;1.50;;;;;;;7.18;74.38;96941.70;109095;1273;22656;-72
2023/10/16 13:28:28;;;;;;;3.60;1.40;;;;;;;7.15;74.10;96938.67;109055;1267;22591;-72